createdAt,value
2017-11-27T00:02:21.587Z,6.68
2017-11-27T00:04:50.001Z,6.77
2017-11-27T00:07:18.344Z,6.79
2017-11-27T00:09:46.679Z,6.64
2017-11-27T00:12:15.861Z,6.79
2017-11-27T00:14:44.185Z,6.81
2017-11-27T00:17:12.510Z,6.76
2017-11-27T00:19:40.877Z,6.75
2017-11-27T00:22:09.217Z,6.94
2017-11-27T00:24:37.542Z,6.89
2017-11-27T00:27:05.881Z,7.16
2017-11-27T00:29:34.205Z,7.37
2017-11-27T00:32:02.539Z,6.95
2017-11-27T00:34:31.031Z,6.94
2017-11-27T00:36:59.350Z,6.92
2017-11-27T00:39:27.683Z,7.03
2017-11-27T00:41:56.032Z,6.93
2017-11-27T00:44:24.384Z,6.88
2017-11-27T00:46:53.496Z,6.77
2017-11-27T00:49:22.594Z,6.91
2017-11-27T00:51:51.668Z,6.81
2017-11-27T00:54:19.998Z,6.89
2017-11-27T00:56:48.519Z,6.93
2017-11-27T00:59:16.855Z,7.10
2017-11-27T01:01:45.199Z,7.08
2017-11-27T01:04:14.321Z,6.86
2017-11-27T01:06:42.643Z,6.77
2017-11-27T01:09:10.983Z,6.80
2017-11-27T01:11:39.369Z,6.86
2017-11-27T01:14:07.674Z,6.79
2017-11-27T01:16:35.972Z,6.34
2017-11-27T01:19:04.681Z,6.44
2017-11-27T01:21:33.771Z,6.25
2017-11-27T01:24:02.085Z,6.53
2017-11-27T01:26:30.502Z,6.64
2017-11-27T01:28:58.821Z,6.51
2017-11-27T01:31:27.120Z,6.52
2017-11-27T01:33:55.488Z,6.69
2017-11-27T01:36:23.815Z,6.60
2017-11-27T01:38:52.134Z,6.59
2017-11-27T01:41:20.578Z,6.41
2017-11-27T01:43:48.913Z,6.26
2017-11-27T01:46:17.226Z,6.41
2017-11-27T01:48:45.560Z,6.41
2017-11-27T01:51:13.901Z,6.26
2017-11-27T01:53:42.186Z,6.11
2017-11-27T01:56:10.564Z,6.26
2017-11-27T01:58:38.927Z,6.31
2017-11-27T02:01:07.263Z,6.34
2017-11-27T02:03:35.710Z,6.55
2017-11-27T02:06:04.809Z,6.65
2017-11-27T02:08:33.910Z,6.40
2017-11-27T02:11:02.281Z,6.25
2017-11-27T02:13:30.758Z,6.24
2017-11-27T02:16:00.036Z,6.34
2017-11-27T02:18:28.413Z,6.10
2017-11-27T02:20:56.722Z,5.86
2017-11-27T02:23:25.068Z,5.95
2017-11-27T02:25:53.619Z,5.60
2017-11-27T02:28:22.037Z,5.78
2017-11-27T02:30:50.418Z,5.91
2017-11-27T02:33:18.894Z,6.08
2017-11-27T02:35:47.235Z,5.91
2017-11-27T02:38:15.540Z,5.93
2017-11-27T02:40:43.916Z,6.06
2017-11-27T02:43:12.234Z,5.91
2017-11-27T02:45:40.570Z,5.81
2017-11-27T02:48:09.114Z,5.78
2017-11-27T02:50:37.478Z,5.52
2017-11-27T02:53:05.829Z,5.75
2017-11-27T02:55:34.194Z,5.59
2017-11-27T02:58:02.500Z,5.58
2017-11-27T03:00:30.817Z,5.57
2017-11-27T03:02:59.160Z,5.33
2017-11-27T03:05:27.537Z,5.48
2017-11-27T03:07:55.890Z,5.63
2017-11-27T03:10:24.498Z,5.58
2017-11-27T03:12:52.815Z,5.41
2017-11-27T03:15:21.158Z,5.59
2017-11-27T03:17:50.287Z,5.58
2017-11-27T03:20:19.464Z,5.55
2017-11-27T03:22:47.814Z,5.70
2017-11-27T03:25:16.993Z,5.49
2017-11-27T03:27:45.305Z,5.47
2017-11-27T03:30:14.478Z,5.47
2017-11-27T03:32:43.736Z,5.53
2017-11-27T03:35:12.096Z,5.56
2017-11-27T03:37:41.266Z,5.31
2017-11-27T03:40:09.652Z,5.40
2017-11-27T03:42:38.840Z,5.70
2017-11-27T03:45:07.166Z,5.76
2017-11-27T03:47:35.536Z,5.67
2017-11-27T03:50:04.640Z,5.27
2017-11-27T03:52:32.962Z,5.45
2017-11-27T03:55:01.373Z,5.16
2017-11-27T03:57:30.453Z,5.45
2017-11-27T03:59:58.762Z,5.27
2017-11-27T04:02:27.886Z,5.27
2017-11-27T04:04:56.265Z,5.18
2017-11-27T04:07:24.621Z,5.10
2017-11-27T04:09:53.802Z,5.26
2017-11-27T04:12:22.128Z,5.16
2017-11-27T04:14:50.475Z,5.23
2017-11-27T04:17:19.684Z,5.04
2017-11-27T04:19:47.993Z,5.13
2017-11-27T04:22:16.341Z,5.15
2017-11-27T04:24:44.705Z,4.95
2017-11-27T04:27:13.063Z,4.92
2017-11-27T04:29:41.404Z,5.16
2017-11-27T04:32:09.763Z,5.14
2017-11-27T04:34:38.074Z,5.21
2017-11-27T04:37:07.178Z,5.22
2017-11-27T04:39:35.874Z,5.32
2017-11-27T04:42:04.218Z,5.47
2017-11-27T04:44:32.619Z,5.54
2017-11-27T04:47:00.989Z,5.67
2017-11-27T04:49:29.352Z,5.27
2017-11-27T04:51:57.671Z,5.43
2017-11-27T04:54:26.028Z,5.56
2017-11-27T04:56:54.398Z,5.62
2017-11-27T04:59:22.691Z,5.48
2017-11-27T05:01:51.547Z,5.68
2017-11-27T05:04:19.860Z,5.69
2017-11-27T05:06:48.175Z,5.58
2017-11-27T05:09:17.300Z,5.80
2017-11-27T05:11:45.620Z,5.58
2017-11-27T05:14:13.993Z,5.57
2017-11-27T05:16:43.138Z,5.77
2017-11-27T05:19:11.478Z,5.87
2017-11-27T05:21:39.825Z,5.76
2017-11-27T05:24:08.337Z,5.88
2017-11-27T05:26:37.421Z,5.91
2017-11-27T05:29:06.525Z,5.80
2017-11-27T05:31:34.899Z,5.89
2017-11-27T05:34:03.248Z,5.88
2017-11-27T05:36:31.588Z,6.02
2017-11-27T05:39:00.741Z,5.97
2017-11-27T05:41:29.091Z,5.86
2017-11-27T05:43:57.406Z,5.97
2017-11-27T05:46:25.815Z,5.83
2017-11-27T05:48:54.124Z,5.86
2017-11-27T05:51:22.443Z,5.84
2017-11-27T05:53:51.101Z,5.90
2017-11-27T05:56:19.410Z,5.94
2017-11-27T05:58:47.774Z,5.83
2017-11-27T06:01:16.156Z,5.85
2017-11-27T06:03:44.500Z,6.14
2017-11-27T06:06:12.840Z,5.86
2017-11-27T06:08:41.423Z,5.91
2017-11-27T06:11:09.745Z,5.72
2017-11-27T06:13:38.079Z,5.98
2017-11-27T06:16:06.426Z,6.07
2017-11-27T06:18:34.774Z,5.87
2017-11-27T06:21:03.121Z,6.05
2017-11-27T06:23:31.458Z,6.03
2017-11-27T06:25:59.770Z,5.83
2017-11-27T06:28:28.071Z,5.90
2017-11-27T06:30:57.258Z,5.89
2017-11-27T06:33:25.559Z,5.77
2017-11-27T06:35:53.898Z,6.02
2017-11-27T06:38:22.244Z,6.12
2017-11-27T06:40:50.566Z,5.91
2017-11-27T06:43:18.900Z,6.13
2017-11-27T06:45:47.250Z,6.26
2017-11-27T06:48:15.563Z,6.02
2017-11-27T06:50:43.908Z,6.13
2017-11-27T06:53:12.588Z,6.14
2017-11-27T06:55:40.923Z,6.34
2017-11-27T06:58:09.264Z,6.18
2017-11-27T07:00:37.685Z,6.37
2017-11-27T07:03:06.776Z,6.31
2017-11-27T07:05:35.115Z,6.25
2017-11-27T07:08:03.477Z,6.29
2017-11-27T07:10:31.823Z,6.25
2017-11-27T07:13:00.135Z,6.35
2017-11-27T07:15:29.887Z,6.35
2017-11-27T07:17:58.249Z,6.52
2017-11-27T07:20:26.620Z,6.71
2017-11-27T07:22:55.052Z,6.61
2017-11-27T07:25:23.380Z,6.35
2017-11-27T07:27:51.676Z,6.35
2017-11-27T07:30:20.008Z,6.31
2017-11-27T07:32:48.331Z,6.40
2017-11-27T07:35:16.674Z,6.44
2017-11-27T07:37:51.302Z,6.55
2017-11-27T07:40:20.380Z,6.70
2017-11-27T07:42:48.714Z,6.59
2017-11-27T07:45:17.058Z,6.70
2017-11-27T07:47:45.401Z,6.74
2017-11-27T07:50:13.913Z,6.62
2017-11-27T07:52:43.041Z,6.43
2017-11-27T07:55:11.354Z,6.73
2017-11-27T07:57:39.667Z,6.76
2017-11-27T08:00:08.563Z,6.75
2017-11-27T08:02:36.931Z,6.93
2017-11-27T08:05:06.035Z,6.83
2017-11-27T08:07:35.182Z,6.75
2017-11-27T08:10:03.505Z,6.89
2017-11-27T08:12:31.849Z,6.98
2017-11-27T08:15:00.229Z,6.96
2017-11-27T08:17:28.575Z,6.76
2017-11-27T08:19:56.942Z,6.83
2017-11-27T08:22:25.918Z,7.23
2017-11-27T08:24:55.105Z,7.28
2017-11-27T08:27:24.207Z,6.93
2017-11-27T08:29:53.328Z,6.85
2017-11-27T08:32:21.670Z,7.07
2017-11-27T08:34:49.991Z,7.13
2017-11-27T08:37:18.357Z,7.12
2017-11-27T08:39:46.677Z,7.31
2017-11-27T08:42:15.033Z,7.06
2017-11-27T08:44:43.430Z,7.03
2017-11-27T08:47:11.749Z,7.19
2017-11-27T08:49:40.101Z,7.29
2017-11-27T08:52:08.471Z,7.49
2017-11-27T08:57:05.289Z,7.19
2017-11-27T08:59:33.673Z,7.21
2017-11-27T09:02:01.982Z,7.09
2017-11-27T09:04:30.272Z,7.31
2017-11-27T09:06:58.850Z,7.52
2017-11-27T09:09:27.186Z,7.51
2017-11-27T09:11:55.489Z,7.09
2017-11-27T09:14:23.851Z,7.60
2017-11-27T09:16:52.172Z,7.38
2017-11-27T09:19:20.506Z,7.18
2017-11-27T09:21:48.870Z,7.30
2017-11-27T09:24:17.225Z,7.35
2017-11-27T09:26:45.571Z,7.28
2017-11-27T09:29:14.190Z,7.27
2017-11-27T09:31:42.551Z,7.51
2017-11-27T09:34:10.928Z,7.47
2017-11-27T09:36:39.294Z,7.37
2017-11-27T09:39:07.627Z,7.43
2017-11-27T09:41:36.008Z,7.35
2017-11-27T09:44:04.392Z,7.70
2017-11-27T09:46:32.739Z,7.84
2017-11-27T09:49:01.077Z,7.69
2017-11-27T09:51:29.497Z,7.50
2017-11-27T09:53:57.850Z,7.57
2017-11-27T09:56:26.192Z,7.42
2017-11-27T09:58:54.538Z,7.42
2017-11-27T10:01:22.858Z,7.65
2017-11-27T10:03:51.190Z,7.83
2017-11-27T10:06:19.569Z,7.65
2017-11-27T10:08:48.700Z,7.39
2017-11-27T10:11:17.063Z,7.35
2017-11-27T10:13:45.591Z,7.43
2017-11-27T10:16:13.922Z,7.47
2017-11-27T10:18:43.034Z,7.47
2017-11-27T10:21:11.405Z,7.45
2017-11-27T10:23:39.763Z,7.28
2017-11-27T10:26:08.980Z,7.33
2017-11-27T10:28:37.366Z,7.79
2017-11-27T10:31:06.462Z,7.81
2017-11-27T10:33:34.806Z,7.62
2017-11-27T10:36:03.243Z,7.29
2017-11-27T10:38:31.598Z,7.23
2017-11-27T10:40:59.951Z,7.30
2017-11-27T10:43:29.053Z,7.43
2017-11-27T10:45:57.415Z,7.14
2017-11-27T10:48:25.798Z,7.06
2017-11-27T10:50:54.174Z,7.06
2017-11-27T10:53:22.525Z,7.03
2017-11-27T10:55:50.830Z,7.40
2017-11-27T10:58:19.850Z,7.22
2017-11-27T11:00:54.413Z,6.85
2017-11-27T11:03:22.746Z,6.88
2017-11-27T11:05:51.068Z,6.77
2017-11-27T11:08:19.414Z,6.75
2017-11-27T11:10:48.518Z,6.68
2017-11-27T11:13:16.859Z,6.63
2017-11-27T11:15:45.174Z,6.55
2017-11-27T11:18:13.819Z,6.59
2017-11-27T11:20:42.184Z,6.50
2017-11-27T11:23:10.519Z,6.37
2017-11-27T11:25:38.885Z,6.45
2017-11-27T11:28:07.216Z,6.17
2017-11-27T11:30:35.531Z,6.34
2017-11-27T11:33:04.689Z,6.61
2017-11-27T11:35:33.026Z,6.46
2017-11-27T11:38:01.411Z,6.44
2017-11-27T11:40:30.173Z,6.39
2017-11-27T11:42:58.481Z,6.45
2017-11-27T11:45:26.813Z,6.44
2017-11-27T11:47:55.169Z,6.36
2017-11-27T11:50:23.473Z,6.40
2017-11-27T11:52:51.801Z,6.37
2017-11-27T11:55:20.139Z,6.38
2017-11-27T11:57:48.477Z,6.38
2017-11-27T12:00:16.778Z,6.01
2017-11-27T12:02:45.295Z,6.01
2017-11-27T12:05:13.610Z,6.14
2017-11-27T12:07:41.912Z,6.27
2017-11-27T12:10:10.309Z,6.17
2017-11-27T12:12:38.658Z,6.11
2017-11-27T12:15:07.740Z,6.13
2017-11-27T12:17:36.136Z,6.26
2017-11-27T12:20:04.491Z,6.12
2017-11-27T12:22:32.804Z,6.28
2017-11-27T12:25:01.357Z,6.20
2017-11-27T12:27:29.663Z,6.52
2017-11-27T12:29:57.988Z,6.50
2017-11-27T12:32:26.339Z,6.41
2017-11-27T12:34:55.472Z,6.38
2017-11-27T12:37:23.806Z,6.21
2017-11-27T12:39:52.183Z,6.25
2017-11-27T12:42:20.493Z,6.26
2017-11-27T12:44:48.830Z,6.44
2017-11-27T12:47:17.271Z,6.39
2017-11-27T12:49:45.593Z,6.41
2017-11-27T12:52:13.904Z,6.39
2017-11-27T12:54:42.273Z,6.21
2017-11-27T12:57:10.660Z,5.93
2017-11-27T12:59:38.991Z,5.94
2017-11-27T13:02:07.337Z,6.02
2017-11-27T13:04:35.644Z,6.09
2017-11-27T13:07:04.042Z,5.96
2017-11-27T13:09:33.374Z,6.03
2017-11-27T13:12:02.451Z,6.07
2017-11-27T13:14:30.781Z,6.09
2017-11-27T13:16:59.124Z,6.17
2017-11-27T13:19:27.453Z,6.27
2017-11-27T13:21:55.928Z,6.40
2017-11-27T13:24:24.253Z,6.23
2017-11-27T13:26:52.565Z,6.02
2017-11-27T13:29:21.021Z,6.21
2017-11-27T13:31:50.417Z,6.27
2017-11-27T13:34:19.782Z,6.28
2017-11-27T13:36:48.882Z,6.22
2017-11-27T13:39:17.262Z,6.29
2017-11-27T13:41:45.573Z,6.29
2017-11-27T13:44:14.654Z,6.46
2017-11-27T13:46:42.988Z,6.28
2017-11-27T13:49:11.318Z,6.17
2017-11-27T13:51:39.662Z,6.19
2017-11-27T13:54:08.391Z,6.33
2017-11-27T13:56:36.741Z,6.44
2017-11-27T13:59:05.066Z,6.25
2017-11-27T14:01:34.180Z,6.37
2017-11-27T14:04:02.520Z,6.30
2017-11-27T14:06:31.590Z,6.17
2017-11-27T14:08:59.954Z,6.26
2017-11-27T14:11:28.315Z,6.31
2017-11-27T14:13:56.643Z,6.11
2017-11-27T14:16:25.157Z,6.42
2017-11-27T14:18:53.522Z,6.25
2017-11-27T14:21:22.606Z,6.37
2017-11-27T14:23:50.970Z,6.35
2017-11-27T14:26:19.342Z,6.26
2017-11-27T14:28:48.441Z,6.30
2017-11-27T14:31:16.865Z,6.31
2017-11-27T14:33:45.972Z,6.30
2017-11-27T14:36:14.329Z,6.34
2017-11-27T14:38:43.527Z,6.11
2017-11-27T14:41:11.900Z,6.13
2017-11-27T14:43:41.047Z,6.29
2017-11-27T14:46:09.362Z,6.42
2017-11-27T14:48:37.681Z,6.49
2017-11-27T14:51:06.016Z,6.38
2017-11-27T14:53:34.386Z,6.36
2017-11-27T14:56:02.719Z,6.58
2017-11-27T14:58:31.057Z,6.33
2017-11-27T15:00:59.881Z,6.11
2017-11-27T15:03:28.203Z,6.08
2017-11-27T15:05:56.542Z,6.21
2017-11-27T15:08:24.869Z,6.22
2017-11-27T15:10:53.166Z,6.29
2017-11-27T15:13:22.284Z,6.36
2017-11-27T15:15:51.698Z,6.29
2017-11-27T15:18:20.249Z,6.38
2017-11-27T15:20:48.659Z,6.36
2017-11-27T15:23:17.473Z,6.31
2017-11-27T15:25:45.953Z,6.46
2017-11-27T15:28:14.261Z,6.27
2017-11-27T15:30:42.674Z,6.53
2017-11-27T15:33:11.029Z,6.35
2017-11-27T15:35:39.434Z,6.48
2017-11-27T15:38:07.766Z,6.36
2017-11-27T15:40:36.125Z,6.31
2017-11-27T15:43:04.480Z,6.35
2017-11-27T15:45:33.369Z,6.50
2017-11-27T15:48:01.742Z,6.56
2017-11-27T15:50:30.126Z,6.60
2017-11-27T15:52:58.497Z,6.56
2017-11-27T15:55:27.593Z,6.66
2017-11-27T15:57:56.825Z,6.74
2017-11-27T16:00:25.194Z,6.58
2017-11-27T16:02:53.514Z,6.85
2017-11-27T16:05:21.821Z,6.71
2017-11-27T16:07:51.114Z,6.74
2017-11-27T16:10:19.461Z,6.82
2017-11-27T16:12:47.820Z,6.77
2017-11-27T16:15:16.187Z,6.83
2017-11-27T16:17:44.577Z,6.82
2017-11-27T16:20:12.902Z,6.74
2017-11-27T16:22:41.263Z,6.69
2017-11-27T16:25:09.609Z,6.94
2017-11-27T16:27:37.953Z,6.86
2017-11-27T16:30:06.372Z,6.83
2017-11-27T16:32:34.686Z,6.85
2017-11-27T16:35:03.006Z,6.99
2017-11-27T16:37:31.339Z,7.11
2017-11-27T16:39:59.673Z,6.88
2017-11-27T16:42:28.012Z,6.95
2017-11-27T16:44:57.132Z,6.87
2017-11-27T16:47:25.447Z,6.99
2017-11-27T16:49:53.743Z,7.11
2017-11-27T16:52:22.284Z,7.32
2017-11-27T16:54:50.619Z,7.36
2017-11-27T16:57:18.951Z,7.42
2017-11-27T16:59:47.456Z,7.28
2017-11-27T17:02:15.841Z,7.37
2017-11-27T17:04:44.160Z,7.38
2017-11-27T17:07:12.917Z,7.44
2017-11-27T17:09:41.268Z,7.38
2017-11-27T17:12:09.584Z,7.33
2017-11-27T17:14:38.202Z,7.44
2017-11-27T17:17:06.530Z,7.36
2017-11-27T17:19:34.862Z,7.61
2017-11-27T17:22:03.209Z,7.51
2017-11-27T17:24:32.315Z,7.64
2017-11-27T17:27:01.410Z,7.73
2017-11-27T17:29:30.558Z,7.53
2017-11-27T17:31:58.907Z,7.41
2017-11-27T17:34:27.261Z,7.38
2017-11-27T17:36:56.446Z,7.53
2017-11-27T17:39:24.809Z,7.65
2017-11-27T17:41:53.344Z,7.65
2017-11-27T17:44:21.719Z,7.67
2017-11-27T17:46:50.071Z,7.91
2017-11-27T17:49:18.402Z,7.84
2017-11-27T17:51:46.770Z,7.86
2017-11-27T17:54:15.128Z,7.86
2017-11-27T17:56:44.248Z,7.72
2017-11-27T17:59:12.966Z,7.85
2017-11-27T18:01:41.309Z,7.70
2017-11-27T18:04:09.614Z,7.79
2017-11-27T18:06:41.159Z,7.69
2017-11-27T18:09:09.636Z,7.93
2017-11-27T18:11:38.095Z,7.93
2017-11-27T18:14:06.474Z,7.77
2017-11-27T18:16:36.461Z,7.82
2017-11-27T18:19:04.802Z,8.13
2017-11-27T18:21:33.532Z,8.13
2017-11-27T18:24:02.650Z,8.22
2017-11-27T18:26:31.024Z,8.11
2017-11-27T18:28:59.511Z,8.24
2017-11-27T18:31:27.836Z,8.07
2017-11-27T18:33:56.145Z,8.16
2017-11-27T18:36:25.260Z,8.08
2017-11-27T18:38:54.444Z,8.13
2017-11-27T18:41:23.570Z,8.09
2017-11-27T18:43:52.043Z,8.09
2017-11-27T18:46:20.944Z,8.24
2017-11-27T18:48:49.352Z,8.33
2017-11-27T18:51:17.699Z,8.06
2017-11-27T18:53:46.067Z,8.08
2017-11-27T18:56:14.833Z,8.26
2017-11-27T18:58:43.313Z,8.02
2017-11-27T19:01:11.662Z,8.06
2017-11-27T19:03:39.989Z,8.33
2017-11-27T19:06:08.528Z,8.27
2017-11-27T19:08:36.883Z,8.26
2017-11-27T19:11:05.207Z,8.31
2017-11-27T19:13:33.575Z,8.52
2017-11-27T19:16:01.956Z,8.32
2017-11-27T19:18:30.299Z,8.31
2017-11-27T19:20:58.677Z,8.53
2017-11-27T19:23:27.809Z,8.63
2017-11-27T19:25:56.155Z,8.77
2017-11-27T19:28:24.745Z,8.93
2017-11-27T19:30:53.089Z,8.81
2017-11-27T19:33:21.432Z,8.72
2017-11-27T19:35:49.814Z,8.92
2017-11-27T19:38:18.155Z,8.82
2017-11-27T19:40:46.709Z,8.54
2017-11-27T19:43:15.078Z,8.54
2017-11-27T19:45:44.205Z,8.83
2017-11-27T19:48:12.554Z,8.65
2017-11-27T19:50:41.822Z,8.80
2017-11-27T19:53:10.203Z,8.61
2017-11-27T19:55:38.561Z,8.75
2017-11-27T19:58:06.927Z,8.41
2017-11-27T20:00:35.349Z,8.48
2017-11-27T20:03:03.704Z,8.74
2017-11-27T20:05:32.076Z,8.65
2017-11-27T20:08:00.429Z,8.86
2017-11-27T20:10:28.760Z,9.14
2017-11-27T20:12:57.190Z,9.29
2017-11-27T20:15:25.501Z,9.32
2017-11-27T20:17:54.014Z,9.17
2017-11-27T20:20:23.138Z,9.07
2017-11-27T20:22:51.522Z,8.86
2017-11-27T20:25:19.877Z,8.64
2017-11-27T20:27:48.984Z,8.79
2017-11-27T20:30:17.349Z,8.65
2017-11-27T20:32:45.706Z,8.71
2017-11-27T20:35:14.443Z,9.06
2017-11-27T20:37:44.409Z,8.89
2017-11-27T20:40:12.769Z,8.63
2017-11-27T20:42:41.229Z,8.91
2017-11-27T20:45:09.651Z,9.12
2017-11-27T20:47:37.996Z,9.09
2017-11-27T20:50:06.338Z,9.24
2017-11-27T20:52:35.559Z,9.23
2017-11-27T20:55:03.957Z,9.24
2017-11-27T20:57:32.563Z,9.01
2017-11-27T21:00:01.662Z,8.93
2017-11-27T21:02:30.905Z,9.21
2017-11-27T21:04:59.792Z,9.30
2017-11-27T21:07:28.147Z,9.34
2017-11-27T21:09:56.473Z,9.45
2017-11-27T21:12:25.093Z,9.38
2017-11-27T21:14:53.422Z,9.30
2017-11-27T21:17:21.749Z,8.98
2017-11-27T21:19:50.172Z,8.76
2017-11-27T21:22:19.404Z,8.76
2017-11-27T21:24:47.740Z,8.63
2017-11-27T21:27:16.835Z,8.85
2017-11-27T21:29:45.147Z,8.76
2017-11-27T21:32:13.487Z,8.48
2017-11-27T21:34:41.875Z,8.44
2017-11-27T21:37:10.212Z,8.48
2017-11-27T21:39:38.550Z,8.63
2017-11-27T21:42:06.971Z,8.74
2017-11-27T21:44:35.287Z,8.73
2017-11-27T21:47:03.624Z,8.67
2017-11-27T21:49:31.951Z,8.85
2017-11-27T21:52:01.032Z,9.00
2017-11-27T21:54:29.386Z,8.84
2017-11-27T21:56:57.863Z,8.91
2017-11-27T21:59:26.814Z,8.80
2017-11-27T22:01:55.193Z,8.72
2017-11-27T22:04:23.666Z,8.80
2017-11-27T22:06:52.078Z,8.74
2017-11-27T22:09:20.426Z,8.80
2017-11-27T22:11:49.555Z,8.55
2017-11-27T22:14:17.948Z,8.25
2017-11-27T22:16:46.381Z,8.19
2017-11-27T22:19:14.727Z,8.39
2017-11-27T22:21:43.024Z,8.51
2017-11-27T22:24:12.139Z,8.26
2017-11-27T22:26:40.589Z,8.38
2017-11-27T22:29:09.898Z,8.22
2017-11-27T22:31:39.002Z,7.98
2017-11-27T22:34:08.350Z,7.87
2017-11-27T22:36:36.690Z,7.88
2017-11-27T22:39:05.045Z,8.02
2017-11-27T22:41:33.428Z,8.06
2017-11-27T22:44:03.453Z,8.22
2017-11-27T22:46:32.559Z,8.13
2017-11-27T22:49:00.994Z,7.99
2017-11-27T22:51:30.142Z,7.94
2017-11-27T22:53:58.473Z,8.09
2017-11-27T22:56:26.836Z,8.22
2017-11-27T22:58:55.172Z,8.05
2017-11-27T23:01:23.519Z,8.03
2017-11-27T23:03:52.032Z,8.10
2017-11-27T23:06:20.371Z,8.05
2017-11-27T23:08:48.717Z,8.20
2017-11-27T23:11:17.737Z,8.03
2017-11-27T23:13:47.791Z,8.31
2017-11-27T23:16:16.121Z,8.17
2017-11-27T23:18:44.469Z,8.10
2017-11-27T23:21:13.265Z,7.86
2017-11-27T23:23:41.607Z,8.12
2017-11-27T23:26:09.949Z,8.18
2017-11-27T23:28:38.666Z,8.12
2017-11-27T23:31:07.016Z,7.98
2017-11-27T23:33:35.516Z,8.14
2017-11-27T23:36:03.845Z,8.01
2017-11-27T23:38:32.182Z,8.03
2017-11-27T23:41:00.540Z,7.91
2017-11-27T23:43:28.917Z,7.90
2017-11-27T23:45:57.227Z,7.76
2017-11-27T23:48:25.600Z,7.93
2017-11-27T23:50:54.442Z,7.86
2017-11-27T23:53:22.736Z,7.96
2017-11-27T23:55:51.217Z,7.74
2017-11-27T23:58:20.093Z,7.80
